Time;durP1;ratioP1;P1;durP2;ratioP2;P2;SDS_P1;SDS_P2;PMS_P1;PMS_P2;Temp;Humidity;BMP_temperature;BMP_pressure;BME280_temperature;BME280_humidity;BME280_pressure;Samples;Min_cycle;Max_cycle;Signal;HPM_P1;HPM_P2
2022/01/17 00:02:24;;;;;;;;;;;;;;;4.63;59.43;100374.78;4452093;32;23194;-86
2022/01/17 00:04:50;;;;;;;;;;;;;;;4.59;59.44;100378.19;4438178;32;19977;-87
2022/01/17 00:07:15;;;;;;;;;;;;;;;4.28;59.42;100360.09;4437600;32;19997;-87
2022/01/17 00:09:40;;;;;;;;;;;;;;;4.38;59.43;100360.09;4438188;32;20005;-90
2022/01/17 00:12:06;;;;;;;;;;;;;;;4.30;59.42;100355.78;4426125;32;20001;-88
2022/01/17 00:14:38;;;;;;;;;;;;;;;4.49;59.44;100351.53;4438198;32;20248;-88
2022/01/17 00:17:31;;;;;;;;;;;;;;;4.48;59.43;100346.38;4425995;32;19990;-88
2022/01/17 00:19:53;;;;;;;;;;;;;;;4.36;59.43;100354.94;4440274;32;21117;-88
2022/01/17 00:22:20;;;;;;;;;;;;;;;4.42;59.43;100362.69;4425675;32;20053;-89
2022/01/17 00:24:45;;;;;;;;;;;;;;;4.34;59.42;100358.38;4437955;32;19977;-88
2022/01/17 00:27:11;;;;;;;;;;;;;;;4.32;59.41;100356.66;4438400;32;20004;-87
2022/01/17 00:29:36;;;;;;;;;;;;;;;4.30;59.42;100362.66;4440224;32;20004;-88
2022/01/17 00:32:01;;;;;;;;;;;;;;;4.33;59.41;100352.34;4427269;32;20039;-89
2022/01/17 00:34:27;;;;;;;;;;;;;;;4.34;59.42;100353.22;4427468;32;19973;-88
2022/01/17 00:36:52;;;;;;;;;;;;;;;4.46;59.43;100356.69;4427260;32;20064;-88
2022/01/17 00:39:17;;;;;;;;;;;;;;;4.54;59.43;100347.25;4426735;32;22492;-87
2022/01/17 00:41:42;;;;;;;;;;;;;;;4.66;59.44;100350.69;4440107;32;20017;-87
2022/01/17 00:44:08;;;;;;;;;;;;;;;4.78;59.44;100350.72;4454666;32;20361;-88
2022/01/17 00:46:33;;;;;;;;;;;;;;;4.71;59.43;100357.56;4454066;32;20036;-88
2022/01/17 00:48:58;;;;;;;;;;;;;;;4.62;59.44;100366.16;4440021;32;19985;-89
2022/01/17 00:51:23;;;;;;;;;;;;;;;4.67;59.44;100363.59;4426891;32;20050;-87
2022/01/17 00:53:48;;;;;;;;;;;;;;;4.74;59.45;100359.34;4453892;32;20332;-89
2022/01/17 00:56:14;;;;;;;;;;;;;;;4.86;59.44;100356.75;4427152;32;20269;-88
2022/01/17 00:58:39;;;;;;;;;;;;;;;4.86;59.44;100364.50;4439944;32;20001;-88
2022/01/17 01:01:04;;;;;;;;;;;;;;;4.88;59.46;100368.78;4427792;32;20008;-88
2022/01/17 01:03:30;;;;;;;;;;;;;;;5.10;59.47;100349.00;4427491;32;20040;-88
2022/01/17 01:05:55;;;;;;;;;;;;;;;4.89;59.45;100369.66;4427390;32;19996;-88
2022/01/17 01:08:20;;;;;;;;;;;;;;;4.92;59.45;100364.47;4454321;32;20034;-90
2022/01/17 01:10:45;;;;;;;;;;;;;;;5.01;59.47;100364.50;4440099;32;20024;-88
2022/01/17 01:13:10;;;;;;;;;;;;;;;4.87;59.45;100361.03;4440042;32;19977;-88
2022/01/17 01:18:13;;;;;;;;;;;;;;;5.01;59.47;100341.28;4454369;32;20374;-89
2022/01/17 01:28:32;;;;;;;;;;;;;;;5.18;59.47;100325.78;4454104;32;19999;-87
2022/01/17 01:30:59;;;;;;;;;;;;;;;4.92;59.45;100328.37;4439949;32;20258;-86
2022/01/17 01:33:35;;;;;;;;;;;;;;;5.05;59.46;100322.37;4427074;32;19996;-88
2022/01/17 01:36:26;;;;;;;;;;;;;;;5.17;59.47;100319.75;4453991;32;20045;-87
2022/01/17 01:38:47;;;;;;;;;;;;;;;5.09;59.47;100318.06;4441578;32;20478;-86
2022/01/17 01:41:12;;;;;;;;;;;;;;;5.21;59.46;100313.75;4453903;32;20034;-87
2022/01/17 01:43:37;;;;;;;;;;;;;;;5.18;59.47;100316.31;4454231;32;20017;-87
2022/01/17 01:46:02;;;;;;;;;;;;;;;5.18;59.47;100318.03;4439648;32;20293;-87
2022/01/17 01:48:28;;;;;;;;;;;;;;;5.00;59.45;100324.09;4439808;32;20001;-87
2022/01/17 01:50:53;;;;;;;;;;;;;;;5.21;59.46;100321.50;4439884;32;19989;-86
2022/01/17 01:53:19;;;;;;;;;;;;;;;5.32;59.48;100310.28;4439928;32;19997;-86
2022/01/17 01:55:44;;;;;;;;;;;;;;;5.34;59.47;100316.31;4454073;32;19995;-86
2022/01/17 01:58:09;;;;;;;;;;;;;;;5.25;59.47;100314.59;4454166;32;20001;-86
2022/01/17 02:00:35;;;;;;;;;;;;;;;5.20;59.47;100313.72;4454205;32;20242;-87
2022/01/17 02:03:00;;;;;;;;;;;;;;;5.18;59.47;100316.31;4439827;32;19989;-87
2022/01/17 02:05:25;;;;;;;;;;;;;;;5.30;59.47;100315.44;4439586;32;20011;-87
2022/01/17 02:07:50;;;;;;;;;;;;;;;5.19;59.47;100324.91;4453602;32;19969;-87
2022/01/17 02:10:15;;;;;;;;;;;;;;;5.24;59.46;100320.62;4426632;32;20696;-87
2022/01/17 02:12:41;;;;;;;;;;;;;;;5.32;59.48;100326.62;4439738;32;19977;-88
2022/01/17 02:15:08;;;;;;;;;;;;;;;5.33;59.48;100328.34;4454039;32;20318;-89
2022/01/17 02:17:40;;;;;;;;;;;;;;;5.29;59.47;100318.03;4426927;32;20004;-88
2022/01/17 02:20:08;;;;;;;;;;;;;;;5.29;59.47;100323.19;4440917;32;19996;-87
2022/01/17 02:22:34;;;;;;;;;;;;;;;5.10;59.46;100315.47;4454412;32;19965;-87
2022/01/17 02:24:59;;;;;;;;;;;;;;;5.09;59.46;100310.31;4454024;32;20014;-87
2022/01/17 02:27:24;;;;;;;;;;;;;;;5.25;59.48;100306.88;4453975;32;19978;-86
2022/01/17 02:29:49;;;;;;;;;;;;;;;5.22;59.47;100314.63;4439225;32;20012;-88
2022/01/17 02:32:14;;;;;;;;;;;;;;;5.19;59.47;100312.00;4439716;32;20014;-87
2022/01/17 02:34:42;;;;;;;;;;;;;;;5.22;59.46;100304.28;4453582;32;19985;-87
2022/01/17 02:37:08;;;;;;;;;;;;;;;5.15;59.46;100302.56;4439390;32;19989;-87
2022/01/17 02:39:34;;;;;;;;;;;;;;;5.01;59.47;100307.75;4453586;32;20003;-87
2022/01/17 02:42:03;;;;;;;;;;;;;;;4.98;59.46;100281.97;4438911;32;22679;-86
2022/01/17 02:44:28;;;;;;;;;;;;;;;5.01;59.47;100287.09;4439209;32;19977;-87
2022/01/17 02:46:53;;;;;;;;;;;;;;;4.98;59.46;100286.25;4453544;32;20001;-86
2022/01/17 02:49:18;;;;;;;;;;;;;;;4.98;59.45;100283.69;4439281;32;19985;-86
2022/01/17 02:51:48;;;;;;;;;;;;;;;4.88;59.45;100280.22;4438041;32;20370;-86
2022/01/17 02:54:13;;;;;;;;;;;;;;;4.81;59.45;100273.34;4426967;32;20463;-87
2022/01/17 02:56:38;;;;;;;;;;;;;;;4.76;59.44;100273.38;4426131;32;21841;-86
2022/01/17 02:59:03;;;;;;;;;;;;;;;4.87;59.45;100261.31;4439339;32;20399;-86
2022/01/17 03:01:29;;;;;;;;;;;;;;;4.79;59.45;100260.47;4453590;32;19989;-86
2022/01/17 03:03:54;;;;;;;;;;;;;;;4.79;59.45;100249.28;4453659;32;20030;-85
2022/01/17 03:06:19;;;;;;;;;;;;;;;4.77;59.44;100232.97;4426404;32;20558;-88
2022/01/17 03:08:45;;;;;;;;;;;;;;;4.75;59.44;100245.00;4438641;32;20503;-85
2022/01/17 03:11:11;;;;;;;;;;;;;;;4.58;59.44;100243.28;4453352;32;20098;-85
2022/01/17 03:13:37;;;;;;;;;;;;;;;4.80;59.45;100235.53;4439128;32;19985;-86
2022/01/17 03:16:08;;;;;;;;;;;;;;;4.88;59.46;100233.78;4426337;32;20000;-86
2022/01/17 03:18:36;;;;;;;;;;;;;;;4.77;59.44;100231.25;4439184;32;20059;-87
2022/01/17 03:21:01;;;;;;;;;;;;;;;4.80;59.45;100238.13;4426436;32;20052;-87
2022/01/17 03:23:27;;;;;;;;;;;;;;;4.82;59.45;100229.50;4439047;32;19992;-87
2022/01/17 03:25:52;;;;;;;;;;;;;;;4.86;59.45;100231.22;4426094;32;20440;-88
2022/01/17 03:28:17;;;;;;;;;;;;;;;4.94;59.46;100223.47;4438914;32;20008;-88
2022/01/17 03:30:43;;;;;;;;;;;;;;;4.93;59.45;100234.63;4426119;32;20046;-89
2022/01/17 03:33:09;;;;;;;;;;;;;;;4.69;59.44;100243.25;4453262;32;19993;-85
2022/01/17 03:35:36;;;;;;;;;;;;;;;4.94;59.46;100257.84;4453153;32;19996;-86
2022/01/17 03:38:01;;;;;;;;;;;;;;;4.96;59.46;100246.66;4439204;32;19997;-86
2022/01/17 03:40:26;;;;;;;;;;;;;;;4.96;59.45;100255.28;4425699;32;19989;-86
2022/01/17 03:42:51;;;;;;;;;;;;;;;5.10;59.47;100271.59;4438744;32;19977;-87
2022/01/17 03:45:17;;;;;;;;;;;;;;;5.38;59.48;100280.16;4425199;32;24982;-87
2022/01/17 03:47:43;;;;;;;;;;;;;;;5.47;59.49;100287.03;4438597;32;20049;-87
2022/01/17 03:50:09;;;;;;;;;;;;;;;5.51;59.48;100296.47;4425769;32;20040;-86
2022/01/17 03:52:35;;;;;;;;;;;;;;;5.54;59.49;100289.56;4425762;32;19988;-86
2022/01/17 03:55:00;;;;;;;;;;;;;;;5.65;59.49;100281.78;4438204;32;23624;-87
2022/01/17 03:57:25;;;;;;;;;;;;;;;5.49;59.48;100280.13;4438162;32;22146;-86
2022/01/17 03:59:50;;;;;;;;;;;;;;;5.46;59.48;100277.56;4438469;32;19989;-87
2022/01/17 04:02:16;;;;;;;;;;;;;;;5.38;59.47;100299.94;4425358;32;24300;-87
2022/01/17 04:04:41;;;;;;;;;;;;;;;5.42;59.48;100288.75;4440041;32;20384;-86
2022/01/17 04:07:06;;;;;;;;;;;;;;;5.48;59.49;100296.50;4454553;32;20001;-86
2022/01/17 04:09:31;;;;;;;;;;;;;;;5.45;59.48;100299.09;4440053;32;24058;-86
2022/01/17 04:11:57;;;;;;;;;;;;;;;5.67;59.49;100290.38;4440203;32;19992;-86
2022/01/17 04:14:22;;;;;;;;;;;;;;;5.76;59.50;100284.34;4440849;32;19993;-87
2022/01/17 04:16:47;;;;;;;;;;;;;;;5.69;59.50;100273.19;4455043;32;19993;-86
2022/01/17 04:19:13;;;;;;;;;;;;;;;5.44;59.48;100292.16;4440504;32;20020;-85
2022/01/17 04:21:38;;;;;;;;;;;;;;;5.56;59.49;100297.31;4440610;32;20008;-86
2022/01/17 04:24:03;;;;;;;;;;;;;;;5.62;59.49;100294.72;4454833;32;20014;-85
2022/01/17 04:26:29;;;;;;;;;;;;;;;5.75;59.49;100293.81;4454246;32;20696;-85
2022/01/17 04:28:54;;;;;;;;;;;;;;;6.00;59.51;100296.31;4439664;32;23692;-85
2022/01/17 04:31:19;;;;;;;;;;;;;;;6.03;59.52;100296.31;4427600;32;19993;-86
2022/01/17 04:33:44;;;;;;;;;;;;;;;5.95;59.51;100318.75;4454712;32;19970;-85
2022/01/17 04:36:10;;;;;;;;;;;;;;;5.98;59.51;100317.00;4440183;32;20048;-85
2022/01/17 04:38:35;;;;;;;;;;;;;;;6.18;59.52;100297.97;4454401;32;20001;-85
2022/01/17 04:41:04;;;;;;;;;;;;;;;6.21;59.53;100308.28;4427476;32;20326;-85
2022/01/17 04:46:06;;;;;;;;;;;;;;;6.20;59.52;100293.66;4454321;32;20007;-85
2022/01/17 04:48:32;;;;;;;;;;;;;;;6.25;59.52;100287.56;4454382;32;19997;-85
2022/01/17 04:50:58;;;;;;;;;;;;;;;6.37;59.53;100273.69;4440129;32;19985;-84
2022/01/17 04:53:24;;;;;;;;;;;;;;;6.09;59.52;100283.34;4427425;32;20013;-85
2022/01/17 04:55:49;;;;;;;;;;;;;;;5.97;59.51;100279.12;4454329;32;20015;-85
2022/01/17 04:58:14;;;;;;;;;;;;;;;5.77;59.51;100271.41;4440150;32;20025;-84
2022/01/17 05:00:46;;;;;;;;;;;;;;;5.76;59.50;100280.03;4454366;32;20282;-85
2022/01/17 05:03:11;;;;;;;;;;;;;;;6.10;59.52;100265.25;4440886;32;19981;-85
2022/01/17 05:05:37;;;;;;;;;;;;;;;6.09;59.52;100260.09;4440060;32;20232;-86
2022/01/17 05:08:02;;;;;;;;;;;;;;;6.33;59.53;100262.53;4454168;32;20371;-86
2022/01/17 05:10:27;;;;;;;;;;;;;;;6.24;59.53;100264.31;4454216;32;20032;-87
2022/01/17 05:12:53;;;;;;;;;;;;;;;6.28;59.54;100263.44;4426995;32;20040;-87
2022/01/17 05:15:27;;;;;;;;;;;;;;;6.11;59.51;100271.28;4439363;32;20001;-88
2022/01/17 05:18:00;;;;;;;;;;;;;;;6.29;59.54;100280.66;4427955;32;19988;-87
2022/01/17 05:20:25;;;;;;;;;;;;;;;6.37;59.53;100276.28;4440711;32;19992;-87
2022/01/17 05:22:50;;;;;;;;;;;;;;;6.48;59.54;100274.50;4439612;32;20057;-88
2022/01/17 05:25:16;;;;;;;;;;;;;;;6.29;59.53;100276.34;4439835;32;19992;-87
2022/01/17 05:27:41;;;;;;;;;;;;;;;6.35;59.54;100288.37;4439852;32;19985;-87
2022/01/17 05:30:08;;;;;;;;;;;;;;;6.35;59.54;100284.06;4439848;32;19985;-87
2022/01/17 05:32:33;;;;;;;;;;;;;;;6.49;59.54;100277.94;4427062;32;20559;-88
2022/01/17 05:34:58;;;;;;;;;;;;;;;6.33;59.53;100272.00;4453976;32;20004;-87
2022/01/17 05:37:23;;;;;;;;;;;;;;;6.35;59.54;100259.94;4453891;32;20312;-88
2022/01/17 05:39:48;;;;;;;;;;;;;;;6.23;59.53;100263.47;4439631;32;19991;-87
2022/01/17 05:42:17;;;;;;;;;;;;;;;6.00;59.51;100252.41;4454120;32;20038;-88
2022/01/17 05:44:43;;;;;;;;;;;;;;;5.73;59.49;100250.78;4453851;32;19999;-86
2022/01/17 05:47:08;;;;;;;;;;;;;;;5.78;59.50;100247.31;4439853;32;20052;-87
2022/01/17 05:49:33;;;;;;;;;;;;;;;5.72;59.49;100257.66;4454078;32;19973;-87
2022/01/17 05:51:58;;;;;;;;;;;;;;;5.87;59.50;100254.13;4439993;32;19981;-86
2022/01/17 05:54:24;;;;;;;;;;;;;;;5.82;59.50;100242.97;4439648;32;20813;-85
2022/01/17 05:56:49;;;;;;;;;;;;;;;5.86;59.50;100235.19;4453579;32;20903;-85
2022/01/17 05:59:14;;;;;;;;;;;;;;;5.80;59.50;100242.12;4439729;32;19987;-86
2022/01/17 06:01:42;;;;;;;;;;;;;;;5.80;59.50;100224.91;4427009;32;20005;-84
2022/01/17 06:04:08;;;;;;;;;;;;;;;5.93;59.51;100230.91;4440045;32;20812;-84
2022/01/17 06:06:33;;;;;;;;;;;;;;;5.95;59.51;100233.47;4453734;32;20068;-84
2022/01/17 06:08:58;;;;;;;;;;;;;;;6.09;59.52;100227.34;4453861;32;20033;-84
2022/01/17 06:11:23;;;;;;;;;;;;;;;6.14;59.53;100237.66;4439257;32;19985;-84
2022/01/17 06:13:49;;;;;;;;;;;;;;;6.10;59.52;100233.37;4439245;32;20009;-85
2022/01/17 06:16:14;;;;;;;;;;;;;;;6.23;59.53;100229.00;4453808;32;19981;-85
2022/01/17 06:18:39;;;;;;;;;;;;;;;6.36;59.54;100234.06;4439331;32;19993;-84
2022/01/17 06:21:04;;;;;;;;;;;;;;;6.23;59.53;100237.63;4453748;32;20008;-85
2022/01/17 06:23:30;;;;;;;;;;;;;;;6.09;59.52;100239.41;4453792;32;20004;-82
2022/01/17 06:25:55;;;;;;;;;;;;;;;6.23;59.53;100229.84;4438769;32;20052;-85
2022/01/17 06:28:20;;;;;;;;;;;;;;;6.29;59.54;100240.16;4453794;32;19999;-86
2022/01/17 06:30:45;;;;;;;;;;;;;;;6.33;59.53;100234.09;4453540;32;19992;-84
2022/01/17 06:33:10;;;;;;;;;;;;;;;6.26;59.52;100231.56;4453840;32;19991;-84
2022/01/17 06:35:37;;;;;;;;;;;;;;;6.17;59.52;100237.66;4439103;32;20019;-84
2022/01/17 06:38:02;;;;;;;;;;;;;;;6.13;59.53;100231.62;4453719;32;20224;-84
2022/01/17 06:40:28;;;;;;;;;;;;;;;6.24;59.53;100226.41;4426155;32;20012;-84
2022/01/17 06:42:53;;;;;;;;;;;;;;;6.10;59.52;100216.13;4439406;32;19997;-85
2022/01/17 06:45:18;;;;;;;;;;;;;;;5.89;59.51;100217.97;4453404;32;19989;-84
2022/01/17 06:47:44;;;;;;;;;;;;;;;5.91;59.52;100206.78;4453450;32;19987;-86
2022/01/17 06:50:09;;;;;;;;;;;;;;;5.83;59.50;100198.19;4439266;32;20363;-84
2022/01/17 06:52:35;;;;;;;;;;;;;;;5.87;59.50;100205.91;4439065;32;20302;-84
2022/01/17 06:55:00;;;;;;;;;;;;;;;5.93;59.51;100209.38;4439080;32;19977;-85
2022/01/17 06:57:25;;;;;;;;;;;;;;;5.87;59.51;100210.22;4453285;32;19999;-84
2022/01/17 06:59:50;;;;;;;;;;;;;;;5.78;59.50;100218.88;4439037;32;20310;-84
2022/01/17 07:02:16;;;;;;;;;;;;;;;5.93;59.51;100207.66;4453344;32;20007;-84
2022/01/17 07:04:41;;;;;;;;;;;;;;;5.94;59.51;100208.50;4438982;32;20262;-84
2022/01/17 07:07:06;;;;;;;;;;;;;;;6.06;59.52;100201.53;4438721;32;20014;-84
2022/01/17 07:09:32;;;;;;;;;;;;;;;6.04;59.52;100205.00;4438652;32;20374;-84
2022/01/17 07:12:00;;;;;;;;;;;;;;;6.09;59.52;100198.91;4453217;32;20272;-85
2022/01/17 07:14:26;;;;;;;;;;;;;;;6.06;59.52;100186.03;4453236;32;19968;-85
2022/01/17 07:16:51;;;;;;;;;;;;;;;6.09;59.52;100186.00;4426198;32;20290;-84
2022/01/17 07:19:16;;;;;;;;;;;;;;;6.01;59.52;100182.63;4452943;32;20613;-84
2022/01/17 07:21:41;;;;;;;;;;;;;;;5.98;59.50;100192.13;4452941;32;20005;-86
2022/01/17 07:24:07;;;;;;;;;;;;;;;6.14;59.52;100184.22;4425882;32;20000;-85
2022/01/17 07:26:32;;;;;;;;;;;;;;;6.17;59.52;100198.03;4438658;32;20421;-85
2022/01/17 07:28:57;;;;;;;;;;;;;;;6.24;59.52;100191.94;4439166;32;19985;-84
2022/01/17 07:31:22;;;;;;;;;;;;;;;6.13;59.52;100203.19;4453018;32;20479;-85
2022/01/17 07:33:47;;;;;;;;;;;;;;;6.00;59.51;100216.22;4438995;32;20261;-86
2022/01/17 07:36:18;;;;;;;;;;;;;;;5.90;59.52;100228.31;4453162;32;20023;-84
2022/01/17 07:38:43;;;;;;;;;;;;;;;5.94;59.51;100232.63;4438710;32;20043;-85
2022/01/17 07:41:08;;;;;;;;;;;;;;;6.22;59.53;100247.97;4425814;32;20005;-85
2022/01/17 07:43:33;;;;;;;;;;;;;;;6.23;59.53;100272.94;4438934;32;19981;-85
2022/01/17 07:46:05;;;;;;;;;;;;;;;6.31;59.53;100297.87;4438509;32;20063;-85
2022/01/17 07:51:11;;;;;;;;;;;;;;;6.31;59.53;100309.94;4440552;32;20030;-85
2022/01/17 07:53:36;;;;;;;;;;;;;;;6.31;59.53;100286.66;4438661;32;19981;-85
2022/01/17 07:56:01;;;;;;;;;;;;;;;6.40;59.54;100251.28;4452807;32;19997;-85
2022/01/17 07:58:27;;;;;;;;;;;;;;;6.26;59.52;100249.66;4452811;32;20004;-85
2022/01/17 08:00:52;;;;;;;;;;;;;;;6.37;59.53;100233.19;4452872;32;20017;-85
2022/01/17 08:03:17;;;;;;;;;;;;;;;6.39;59.53;100222.88;4451890;32;20315;-83
2022/01/17 08:05:42;;;;;;;;;;;;;;;6.38;59.53;100237.47;4452413;32;19973;-85
2022/01/17 08:08:08;;;;;;;;;;;;;;;6.34;59.53;100233.22;4452586;32;19982;-82
2022/01/17 08:10:33;;;;;;;;;;;;;;;6.34;59.53;100228.03;4438182;32;20074;-83
2022/01/17 08:12:58;;;;;;;;;;;;;;;6.27;59.54;100231.53;4451753;32;19981;-82
2022/01/17 08:15:24;;;;;;;;;;;;;;;6.40;59.54;100212.50;4437463;32;20595;-84
2022/01/17 08:17:49;;;;;;;;;;;;;;;6.32;59.53;100201.34;4424699;32;20004;-85
2022/01/17 08:20:15;;;;;;;;;;;;;;;6.39;59.54;100197.88;4437438;32;20008;-85
2022/01/17 08:22:42;;;;;;;;;;;;;;;6.52;59.54;100188.25;4437602;32;19992;-85
2022/01/17 08:25:07;;;;;;;;;;;;;;;6.69;59.55;100170.00;4437589;32;19985;-84
2022/01/17 08:27:33;;;;;;;;;;;;;;;6.83;59.56;100164.69;4437214;32;19981;-84
2022/01/17 08:29:58;;;;;;;;;;;;;;;6.98;59.57;100175.75;4437412;32;20015;-85
2022/01/17 08:32:27;;;;;;;;;;;;;;;7.10;59.58;100167.00;4437381;32;20052;-83
2022/01/17 08:34:52;;;;;;;;;;;;;;;7.11;59.58;100170.44;4437563;32;19981;-85
2022/01/17 08:37:17;;;;;;;;;;;;;;;7.03;59.58;100168.78;4436701;32;24579;-83
2022/01/17 08:39:42;;;;;;;;;;;;;;;6.94;59.56;100170.62;4436791;32;20032;-84
2022/01/17 08:42:10;;;;;;;;;;;;;;;7.19;59.58;100184.16;4437206;32;20009;-84
2022/01/17 08:44:36;;;;;;;;;;;;;;;7.30;59.58;100193.50;4437330;32;19984;-85
2022/01/17 08:47:02;;;;;;;;;;;;;;;7.28;59.58;100210.78;4436920;32;20250;-85
2022/01/17 08:49:27;;;;;;;;;;;;;;;7.41;59.60;100218.44;4452780;32;20246;-86
2022/01/17 08:51:52;;;;;;;;;;;;;;;7.35;59.59;100220.22;4453023;32;24520;-86
2022/01/17 08:54:17;;;;;;;;;;;;;;;7.09;59.58;100228.25;4439053;32;19981;-85
2022/01/17 08:56:42;;;;;;;;;;;;;;;7.02;59.57;100208.47;4453501;32;20020;-84
2022/01/17 08:59:08;;;;;;;;;;;;;;;6.75;59.55;100198.41;4438944;32;19989;-84
2022/01/17 09:01:34;;;;;;;;;;;;;;;6.68;59.55;100196.75;4425901;32;20376;-83
2022/01/17 09:04:00;;;;;;;;;;;;;;;6.45;59.54;100160.75;4453099;32;19988;-85
2022/01/17 09:06:26;;;;;;;;;;;;;;;6.21;59.53;100143.72;4453223;32;19985;-84
2022/01/17 09:08:52;;;;;;;;;;;;;;;6.24;59.52;100172.13;4453555;32;19985;-86
2022/01/17 09:11:17;;;;;;;;;;;;;;;6.20;59.53;100173.00;4453370;32;19984;-84
2022/01/17 09:13:42;;;;;;;;;;;;;;;6.17;59.53;100120.50;4426329;32;19973;-84
2022/01/17 09:16:08;;;;;;;;;;;;;;;6.36;59.53;100146.16;4426164;32;20049;-84
2022/01/17 09:18:33;;;;;;;;;;;;;;;6.44;59.54;100141.78;4426093;32;20036;-86
2022/01/17 09:20:59;;;;;;;;;;;;;;;6.38;59.54;100147.00;4426427;32;20356;-83
2022/01/17 09:23:24;;;;;;;;;;;;;;;6.35;59.54;100167.69;4439040;32;19981;-83
2022/01/17 09:25:51;;;;;;;;;;;;;;;6.11;59.52;100157.56;4452692;32;19986;-82
2022/01/17 09:28:16;;;;;;;;;;;;;;;6.41;59.54;100148.72;4426427;32;20442;-82
2022/01/17 09:30:41;;;;;;;;;;;;;;;6.52;59.55;100138.25;4440050;32;20001;-84
2022/01/17 09:33:07;;;;;;;;;;;;;;;6.55;59.55;100140.81;4439797;32;19995;-83
2022/01/17 09:35:32;;;;;;;;;;;;;;;6.65;59.54;100139.88;4427177;32;20026;-84
2022/01/17 09:37:57;;;;;;;;;;;;;;;6.78;59.56;100131.97;4440091;32;20000;-84
2022/01/17 09:40:23;;;;;;;;;;;;;;;6.79;59.56;100119.88;4454202;32;20037;-84
2022/01/17 09:42:48;;;;;;;;;;;;;;;6.74;59.56;100124.25;4454286;32;20021;-85
2022/01/17 09:45:14;;;;;;;;;;;;;;;6.71;59.55;100114.78;4439931;32;20021;-85
2022/01/17 09:47:41;;;;;;;;;;;;;;;7.01;59.57;100104.97;4439648;32;20004;-86
2022/01/17 09:50:09;;;;;;;;;;;;;;;7.09;59.57;100113.50;4454282;32;20326;-86
2022/01/17 09:52:34;;;;;;;;;;;;;;;7.15;59.57;100069.44;4454174;32;19984;-85
2022/01/17 09:55:11;;;;;;;;;;;;;;;7.17;59.57;100064.22;4439960;32;19990;-83
2022/01/17 09:58:08;;;;;;;;;;;;;;;7.21;59.58;100058.13;4439670;32;20723;-86
2022/01/17 10:00:35;;;;;;;;;;;;;;;7.34;59.59;100050.19;4418479;32;20329;-84
2022/01/17 10:03:02;;;;;;;;;;;;;;;7.38;59.59;100063.94;4440047;32;19980;-84
2022/01/17 10:05:28;;;;;;;;;;;;;;;7.41;59.59;100060.44;4454174;32;19973;-83
2022/01/17 10:07:54;;;;;;;;;;;;;;;7.55;59.60;100059.34;4439950;32;20367;-84
2022/01/17 10:10:57;;;;;;;;;;;;;;;7.52;59.59;100059.41;4439775;32;19991;-83
2022/01/17 10:13:32;;;;;;;;;;;;;;;7.57;59.61;100059.31;4420899;32;20031;-83
2022/01/17 10:16:00;;;;;;;;;;;;;;;7.60;59.60;100062.75;4439765;32;20013;-83
2022/01/17 10:18:30;;;;;;;;;;;;;;;7.54;59.59;100068.00;4453477;32;20412;-85
2022/01/17 10:21:08;;;;;;;;;;;;;;;7.59;59.60;100055.88;4439263;32;19977;-86
2022/01/17 10:26:33;;;;;;;;;;;;;;;7.81;59.61;100035.66;4453792;32;20050;-85
2022/01/17 10:37:12;;;;;;;;;;;;;;;7.88;59.62;100023.44;4453770;32;20000;-85
2022/01/17 10:39:50;;;;;;;;;;;;;;;7.91;59.62;100018.22;4439213;32;20013;-85
2022/01/17 10:42:28;;;;;;;;;;;;;;;7.85;59.62;100002.78;4426271;32;20097;-84
2022/01/17 10:44:53;;;;;;;;;;;;;;;7.83;59.61;100000.22;4439037;32;20000;-84
2022/01/17 10:47:18;;;;;;;;;;;;;;;7.92;59.63;99984.47;4439158;32;20320;-83
2022/01/17 10:49:51;;;;;;;;;;;;;;;7.60;59.60;99989.38;4453690;32;20003;-86
2022/01/17 10:52:29;;;;;;;;;;;;;;;7.71;59.61;99997.81;4439258;32;20014;-85
2022/01/17 10:54:55;;;;;;;;;;;;;;;7.65;59.60;99996.16;4453624;32;19985;-86
2022/01/17 10:57:22;;;;;;;;;;;;;;;7.72;59.61;99964.97;4439408;32;20329;-86
2022/01/17 10:59:51;;;;;;;;;;;;;;;7.47;59.60;99988.69;4439648;32;19997;-84
2022/01/17 11:02:16;;;;;;;;;;;;;;;7.46;59.59;99971.44;4426890;32;19996;-86
2022/01/17 11:04:42;;;;;;;;;;;;;;;7.54;59.60;99966.12;4439125;32;19985;-85
2022/01/17 11:07:07;;;;;;;;;;;;;;;7.63;59.61;99951.31;4425994;32;20326;-84
2022/01/17 11:09:42;;;;;;;;;;;;;;;7.52;59.59;99945.44;4453387;32;20290;-85
2022/01/17 11:12:11;;;;;;;;;;;;;;;7.64;59.61;99929.69;4425137;32;19985;-85
2022/01/17 11:14:36;;;;;;;;;;;;;;;7.85;59.62;99950.94;4438871;32;20000;-87
2022/01/17 11:17:09;;;;;;;;;;;;;;;7.83;59.61;99939.75;4426426;32;20325;-84
2022/01/17 11:22:18;;;;;;;;;;;;;;;7.58;59.60;99945.34;4441220;32;20036;-85
2022/01/17 11:24:44;;;;;;;;;;;;;;;7.85;59.62;99914.66;4452982;32;20017;-86
2022/01/17 11:27:09;;;;;;;;;;;;;;;7.87;59.62;99898.19;4452952;32;20053;-86
2022/01/17 11:29:39;;;;;;;;;;;;;;;7.80;59.62;99898.31;4452902;32;19989;-86
2022/01/17 11:32:05;;;;;;;;;;;;;;;7.95;59.62;99900.63;4439698;32;20009;-85
2022/01/17 11:34:30;;;;;;;;;;;;;;;7.99;59.63;99902.28;4438975;32;19996;-86
2022/01/17 11:36:55;;;;;;;;;;;;;;;8.09;59.64;99892.59;4438778;32;20419;-86
2022/01/17 11:39:20;;;;;;;;;;;;;;;8.19;59.63;99896.72;4425958;32;20290;-87
2022/01/17 11:41:49;;;;;;;;;;;;;;;8.23;59.64;99904.38;4439018;32;19977;-86
2022/01/17 11:44:14;;;;;;;;;;;;;;;8.23;59.64;99919.94;4425989;32;19985;-86
2022/01/17 11:46:48;;;;;;;;;;;;;;;8.07;59.64;99900.41;4438484;32;20647;-87
2022/01/17 11:49:13;;;;;;;;;;;;;;;7.93;59.63;99920.53;4426459;32;20011;-86
2022/01/17 11:51:49;;;;;;;;;;;;;;;7.91;59.61;99891.22;4438431;32;19977;-86
2022/01/17 11:54:14;;;;;;;;;;;;;;;8.07;59.63;99915.97;4426371;32;20186;-85
2022/01/17 11:56:40;;;;;;;;;;;;;;;8.18;59.64;99903.63;4452932;32;19974;-86
2022/01/17 11:59:24;;;;;;;;;;;;;;;8.02;59.63;99884.91;4426019;32;19993;-86
2022/01/17 12:02:08;;;;;;;;;;;;;;;8.04;59.62;99897.84;4452981;32;20345;-86
2022/01/17 12:04:33;;;;;;;;;;;;;;;8.20;59.63;99886.31;4453097;32;19978;-86
2022/01/17 12:06:58;;;;;;;;;;;;;;;8.23;59.64;99883.66;4452975;32;20007;-87
2022/01/17 12:09:25;;;;;;;;;;;;;;;8.19;59.64;99860.41;4426072;32;19985;-86
2022/01/17 12:11:53;;;;;;;;;;;;;;;8.09;59.63;99859.75;4438904;32;20718;-86
2022/01/17 12:14:27;;;;;;;;;;;;;;;8.15;59.64;99844.06;4438754;32;19973;-87
2022/01/17 12:16:52;;;;;;;;;;;;;;;8.29;59.65;99843.78;4452709;32;19985;-86
2022/01/17 12:19:18;;;;;;;;;;;;;;;8.34;59.65;99869.66;4425528;32;20031;-85
2022/01/17 12:21:44;;;;;;;;;;;;;;;8.17;59.64;99872.56;4438051;32;19996;-87
2022/01/17 12:24:16;;;;;;;;;;;;;;;8.03;59.63;99852.06;4426570;32;20269;-86
2022/01/17 12:26:41;;;;;;;;;;;;;;;8.11;59.63;99852.78;4454410;32;20337;-87
2022/01/17 12:29:06;;;;;;;;;;;;;;;8.23;59.64;99828.34;4440244;32;19989;-86
2022/01/17 12:31:38;;;;;;;;;;;;;;;8.12;59.63;99814.75;4439965;32;20310;-86
2022/01/17 12:34:23;;;;;;;;;;;;;;;8.12;59.63;99813.03;4454593;32;19991;-87
2022/01/17 12:36:48;;;;;;;;;;;;;;;7.99;59.63;99802.03;4440496;32;19989;-86
2022/01/17 12:39:15;;;;;;;;;;;;;;;7.85;59.62;99800.63;4454509;32;20048;-84
2022/01/17 12:41:44;;;;;;;;;;;;;;;7.69;59.62;99798.34;4440423;32;19981;-85
2022/01/17 12:44:24;;;;;;;;;;;;;;;7.85;59.62;99809.25;4454439;32;19985;-87
2022/01/17 12:46:57;;;;;;;;;;;;;;;7.72;59.61;99814.69;4440225;32;19988;-86
2022/01/17 12:49:22;;;;;;;;;;;;;;;7.80;59.61;99817.97;4454579;32;19984;-86
2022/01/17 12:51:48;;;;;;;;;;;;;;;7.85;59.62;99819.63;4440256;32;20050;-86
2022/01/17 12:54:15;;;;;;;;;;;;;;;7.84;59.62;99814.47;4454535;32;20016;-86
2022/01/17 12:56:44;;;;;;;;;;;;;;;7.87;59.62;99814.41;4454512;32;19981;-85
2022/01/17 12:59:09;;;;;;;;;;;;;;;7.81;59.62;99830.94;4440194;32;20015;-87
2022/01/17 13:01:34;;;;;;;;;;;;;;;7.94;59.62;99813.38;4454387;32;19984;-86
2022/01/17 13:04:04;;;;;;;;;;;;;;;7.69;59.61;99810.44;4454362;32;19973;-86
2022/01/17 13:06:29;;;;;;;;;;;;;;;7.52;59.59;99791.75;4454389;32;20334;-86
2022/01/17 13:08:55;;;;;;;;;;;;;;;7.51;59.60;99801.25;4453840;32;19989;-87
2022/01/17 13:11:23;;;;;;;;;;;;;;;7.46;59.59;99797.91;4427151;32;19974;-87
2022/01/17 13:13:53;;;;;;;;;;;;;;;7.65;59.61;99796.69;4440416;32;19992;-86
2022/01/17 13:16:20;;;;;;;;;;;;;;;7.93;59.62;99809.09;4427235;32;20597;-87